sensor_id;sensor_type;location;lat;lon;timestamp;P1;durP1;ratioP1;P2;durP2;ratioP2
28028;SDS011;15345;59.364;18.016;2024-02-21T00:00:18;8.48;;;7.65;;
28028;SDS011;15345;59.364;18.016;2024-02-21T00:01:37;7.30;;;6.55;;
28028;SDS011;15345;59.364;18.016;2024-02-21T00:02:56;7.43;;;6.60;;
28028;SDS011;15345;59.364;18.016;2024-02-21T00:04:18;7.78;;;6.47;;
28028;SDS011;15345;59.364;18.016;2024-02-21T00:05:37;6.40;;;5.80;;
28028;SDS011;15345;59.364;18.016;2024-02-21T00:06:55;6.88;;;6.18;;
28028;SDS011;15345;59.364;18.016;2024-02-21T00:08:14;8.30;;;7.13;;
28028;SDS011;15345;59.364;18.016;2024-02-21T00:09:33;8.20;;;7.40;;
28028;SDS011;15345;59.364;18.016;2024-02-21T00:10:53;7.10;;;6.40;;
28028;SDS011;15345;59.364;18.016;2024-02-21T00:12:12;7.75;;;6.10;;
28028;SDS011;15345;59.364;18.016;2024-02-21T00:13:32;7.55;;;6.75;;
28028;SDS011;15345;59.364;18.016;2024-02-21T00:14:51;7.93;;;6.80;;
28028;SDS011;15345;59.364;18.016;2024-02-21T00:16:11;7.45;;;6.35;;
28028;SDS011;15345;59.364;18.016;2024-02-21T00:17:29;6.70;;;5.95;;
28028;SDS011;15345;59.364;18.016;2024-02-21T00:18:48;9.57;;;7.13;;
28028;SDS011;15345;59.364;18.016;2024-02-21T00:20:07;6.80;;;6.10;;
28028;SDS011;15345;59.364;18.016;2024-02-21T00:21:27;9.57;;;6.85;;
28028;SDS011;15345;59.364;18.016;2024-02-21T00:22:46;7.65;;;6.93;;
28028;SDS011;15345;59.364;18.016;2024-02-21T00:24:05;8.02;;;6.95;;
28028;SDS011;15345;59.364;18.016;2024-02-21T00:25:24;7.45;;;6.68;;
28028;SDS011;15345;59.364;18.016;2024-02-21T00:26:42;8.10;;;7.18;;
28028;SDS011;15345;59.364;18.016;2024-02-21T00:28:01;8.02;;;6.60;;
28028;SDS011;15345;59.364;18.016;2024-02-21T00:29:20;7.43;;;6.65;;
28028;SDS011;15345;59.364;18.016;2024-02-21T00:30:39;7.20;;;6.40;;
28028;SDS011;15345;59.364;18.016;2024-02-21T00:31:58;6.90;;;6.28;;
28028;SDS011;15345;59.364;18.016;2024-02-21T00:33:17;6.13;;;5.63;;
28028;SDS011;15345;59.364;18.016;2024-02-21T00:34:36;6.32;;;5.72;;
28028;SDS011;15345;59.364;18.016;2024-02-21T00:35:55;7.03;;;6.13;;
28028;SDS011;15345;59.364;18.016;2024-02-21T00:37:14;6.43;;;5.82;;
28028;SDS011;15345;59.364;18.016;2024-02-21T00:38:33;6.88;;;6.18;;
28028;SDS011;15345;59.364;18.016;2024-02-21T00:39:53;11.48;;;6.50;;
28028;SDS011;15345;59.364;18.016;2024-02-21T00:41:12;6.63;;;6.03;;
28028;SDS011;15345;59.364;18.016;2024-02-21T00:42:31;7.20;;;5.97;;
28028;SDS011;15345;59.364;18.016;2024-02-21T00:43:50;6.75;;;6.05;;
28028;SDS011;15345;59.364;18.016;2024-02-21T00:45:09;8.93;;;7.15;;
28028;SDS011;15345;59.364;18.016;2024-02-21T00:46:28;7.18;;;6.47;;
28028;SDS011;15345;59.364;18.016;2024-02-21T00:47:47;6.93;;;6.28;;
28028;SDS011;15345;59.364;18.016;2024-02-21T00:49:06;8.70;;;6.60;;
28028;SDS011;15345;59.364;18.016;2024-02-21T00:50:25;6.70;;;6.10;;
28028;SDS011;15345;59.364;18.016;2024-02-21T00:51:44;7.85;;;6.60;;
28028;SDS011;15345;59.364;18.016;2024-02-21T00:53:03;6.90;;;6.20;;
28028;SDS011;15345;59.364;18.016;2024-02-21T00:54:21;10.48;;;6.85;;
28028;SDS011;15345;59.364;18.016;2024-02-21T00:55:41;7.75;;;6.95;;
28028;SDS011;15345;59.364;18.016;2024-02-21T00:57:02;7.80;;;6.70;;
28028;SDS011;15345;59.364;18.016;2024-02-21T00:58:21;7.38;;;6.68;;
28028;SDS011;15345;59.364;18.016;2024-02-21T00:59:40;7.05;;;6.32;;
28028;SDS011;15345;59.364;18.016;2024-02-21T01:01:00;6.68;;;6.07;;
28028;SDS011;15345;59.364;18.016;2024-02-21T01:02:20;7.38;;;6.57;;
28028;SDS011;15345;59.364;18.016;2024-02-21T01:03:39;7.03;;;6.32;;
28028;SDS011;15345;59.364;18.016;2024-02-21T01:04:59;5.95;;;5.35;;
28028;SDS011;15345;59.364;18.016;2024-02-21T01:06:21;6.55;;;5.95;;
28028;SDS011;15345;59.364;18.016;2024-02-21T01:07:40;6.75;;;6.05;;
28028;SDS011;15345;59.364;18.016;2024-02-21T01:08:58;6.30;;;5.63;;
28028;SDS011;15345;59.364;18.016;2024-02-21T01:10:17;6.05;;;5.45;;
28028;SDS011;15345;59.364;18.016;2024-02-21T01:11:36;7.22;;;5.90;;
28028;SDS011;15345;59.364;18.016;2024-02-21T01:12:55;6.97;;;5.57;;
28028;SDS011;15345;59.364;18.016;2024-02-21T01:14:16;5.88;;;5.38;;
28028;SDS011;15345;59.364;18.016;2024-02-21T01:15:35;7.10;;;5.85;;
28028;SDS011;15345;59.364;18.016;2024-02-21T01:16:54;8.07;;;6.00;;
28028;SDS011;15345;59.364;18.016;2024-02-21T01:18:14;7.35;;;5.90;;
28028;SDS011;15345;59.364;18.016;2024-02-21T01:19:33;6.68;;;5.93;;
28028;SDS011;15345;59.364;18.016;2024-02-21T01:20:52;6.50;;;5.90;;
28028;SDS011;15345;59.364;18.016;2024-02-21T01:22:11;6.18;;;5.53;;
28028;SDS011;15345;59.364;18.016;2024-02-21T01:23:30;5.93;;;5.32;;
28028;SDS011;15345;59.364;18.016;2024-02-21T01:24:49;10.27;;;6.18;;
28028;SDS011;15345;59.364;18.016;2024-02-21T01:26:09;8.05;;;5.97;;
28028;SDS011;15345;59.364;18.016;2024-02-21T01:27:32;6.97;;;5.70;;
28028;SDS011;15345;59.364;18.016;2024-02-21T01:28:51;7.68;;;5.97;;
28028;SDS011;15345;59.364;18.016;2024-02-21T01:30:10;7.22;;;5.40;;
28028;SDS011;15345;59.364;18.016;2024-02-21T01:31:32;11.23;;;6.27;;
28028;SDS011;15345;59.364;18.016;2024-02-21T01:32:50;12.95;;;5.65;;
28028;SDS011;15345;59.364;18.016;2024-02-21T01:34:09;17.45;;;6.35;;
28028;SDS011;15345;59.364;18.016;2024-02-21T01:35:28;6.93;;;5.78;;
28028;SDS011;15345;59.364;18.016;2024-02-21T01:36:48;12.25;;;5.75;;
28028;SDS011;15345;59.364;18.016;2024-02-21T01:38:08;8.68;;;5.85;;
28028;SDS011;15345;59.364;18.016;2024-02-21T01:39:28;8.52;;;5.85;;
28028;SDS011;15345;59.364;18.016;2024-02-21T01:40:47;7.28;;;5.63;;
28028;SDS011;15345;59.364;18.016;2024-02-21T01:42:06;7.93;;;6.57;;
28028;SDS011;15345;59.364;18.016;2024-02-21T01:43:25;18.65;;;7.18;;
28028;SDS011;15345;59.364;18.016;2024-02-21T01:44:44;13.18;;;6.65;;
28028;SDS011;15345;59.364;18.016;2024-02-21T01:46:03;12.68;;;6.82;;
28028;SDS011;15345;59.364;18.016;2024-02-21T01:47:22;14.20;;;6.80;;
28028;SDS011;15345;59.364;18.016;2024-02-21T01:48:42;21.02;;;7.95;;
28028;SDS011;15345;59.364;18.016;2024-02-21T01:50:02;17.08;;;7.40;;
28028;SDS011;15345;59.364;18.016;2024-02-21T01:51:21;19.48;;;7.80;;
28028;SDS011;15345;59.364;18.016;2024-02-21T01:52:40;15.18;;;7.15;;
28028;SDS011;15345;59.364;18.016;2024-02-21T01:53:59;14.75;;;7.03;;
28028;SDS011;15345;59.364;18.016;2024-02-21T01:55:18;16.50;;;6.38;;
28028;SDS011;15345;59.364;18.016;2024-02-21T01:56:39;12.50;;;7.10;;
28028;SDS011;15345;59.364;18.016;2024-02-21T01:57:58;15.95;;;6.85;;
28028;SDS011;15345;59.364;18.016;2024-02-21T01:59:17;17.73;;;8.25;;
28028;SDS011;15345;59.364;18.016;2024-02-21T02:00:37;14.57;;;7.65;;
28028;SDS011;15345;59.364;18.016;2024-02-21T02:01:57;19.02;;;6.97;;
28028;SDS011;15345;59.364;18.016;2024-02-21T02:03:17;12.13;;;7.30;;
28028;SDS011;15345;59.364;18.016;2024-02-21T02:04:37;17.15;;;7.82;;
28028;SDS011;15345;59.364;18.016;2024-02-21T02:05:56;12.13;;;7.00;;
28028;SDS011;15345;59.364;18.016;2024-02-21T02:07:15;17.67;;;7.05;;
28028;SDS011;15345;59.364;18.016;2024-02-21T02:08:34;18.60;;;7.78;;
28028;SDS011;15345;59.364;18.016;2024-02-21T02:09:53;16.35;;;7.40;;
28028;SDS011;15345;59.364;18.016;2024-02-21T02:11:13;13.75;;;7.57;;
28028;SDS011;15345;59.364;18.016;2024-02-21T02:12:32;15.40;;;7.88;;
28028;SDS011;15345;59.364;18.016;2024-02-21T02:13:51;18.27;;;7.72;;
28028;SDS011;15345;59.364;18.016;2024-02-21T02:15:10;11.85;;;7.35;;
28028;SDS011;15345;59.364;18.016;2024-02-21T02:16:29;17.70;;;7.22;;
28028;SDS011;15345;59.364;18.016;2024-02-21T02:17:48;12.98;;;7.20;;
28028;SDS011;15345;59.364;18.016;2024-02-21T02:19:07;16.73;;;7.40;;
28028;SDS011;15345;59.364;18.016;2024-02-21T02:20:31;16.83;;;7.15;;
28028;SDS011;15345;59.364;18.016;2024-02-21T02:21:50;18.90;;;7.93;;
28028;SDS011;15345;59.364;18.016;2024-02-21T02:24:44;16.60;;;7.82;;
28028;SDS011;15345;59.364;18.016;2024-02-21T02:26:03;12.30;;;7.40;;
28028;SDS011;15345;59.364;18.016;2024-02-21T02:27:22;14.27;;;7.90;;
28028;SDS011;15345;59.364;18.016;2024-02-21T02:28:42;14.30;;;7.45;;
28028;SDS011;15345;59.364;18.016;2024-02-21T02:30:02;23.70;;;8.85;;
28028;SDS011;15345;59.364;18.016;2024-02-21T02:31:21;16.88;;;7.78;;
28028;SDS011;15345;59.364;18.016;2024-02-21T02:32:43;14.82;;;8.32;;
28028;SDS011;15345;59.364;18.016;2024-02-21T02:34:03;19.33;;;8.90;;
28028;SDS011;15345;59.364;18.016;2024-02-21T02:35:22;17.02;;;8.77;;
28028;SDS011;15345;59.364;18.016;2024-02-21T02:36:41;17.38;;;8.32;;
28028;SDS011;15345;59.364;18.016;2024-02-21T02:38:01;14.95;;;7.57;;
28028;SDS011;15345;59.364;18.016;2024-02-21T02:39:20;16.38;;;8.45;;
28028;SDS011;15345;59.364;18.016;2024-02-21T02:40:39;15.85;;;8.10;;
28028;SDS011;15345;59.364;18.016;2024-02-21T02:41:59;21.20;;;8.85;;
28028;SDS011;15345;59.364;18.016;2024-02-21T02:43:19;19.10;;;8.75;;
28028;SDS011;15345;59.364;18.016;2024-02-21T02:44:38;19.25;;;8.32;;
28028;SDS011;15345;59.364;18.016;2024-02-21T02:45:57;21.73;;;9.43;;
28028;SDS011;15345;59.364;18.016;2024-02-21T02:47:16;24.90;;;9.95;;
28028;SDS011;15345;59.364;18.016;2024-02-21T02:48:35;19.75;;;9.05;;
28028;SDS011;15345;59.364;18.016;2024-02-21T02:49:54;20.73;;;9.27;;
28028;SDS011;15345;59.364;18.016;2024-02-21T02:51:13;24.67;;;11.35;;
28028;SDS011;15345;59.364;18.016;2024-02-21T02:52:32;23.95;;;9.82;;
28028;SDS011;15345;59.364;18.016;2024-02-21T02:53:51;23.83;;;9.57;;
28028;SDS011;15345;59.364;18.016;2024-02-21T02:55:10;20.60;;;9.68;;
28028;SDS011;15345;59.364;18.016;2024-02-21T02:56:30;21.88;;;8.90;;
28028;SDS011;15345;59.364;18.016;2024-02-21T02:57:48;21.17;;;10.05;;
28028;SDS011;15345;59.364;18.016;2024-02-21T02:59:07;24.77;;;9.85;;
28028;SDS011;15345;59.364;18.016;2024-02-21T03:00:27;16.60;;;9.10;;
28028;SDS011;15345;59.364;18.016;2024-02-21T03:01:46;16.08;;;8.98;;
28028;SDS011;15345;59.364;18.016;2024-02-21T03:03:05;20.60;;;9.82;;
28028;SDS011;15345;59.364;18.016;2024-02-21T03:04:25;18.73;;;9.32;;
28028;SDS011;15345;59.364;18.016;2024-02-21T03:05:43;18.90;;;9.60;;
28028;SDS011;15345;59.364;18.016;2024-02-21T03:07:03;22.90;;;10.05;;
28028;SDS011;15345;59.364;18.016;2024-02-21T03:08:22;22.38;;;10.43;;
28028;SDS011;15345;59.364;18.016;2024-02-21T03:09:41;18.63;;;9.63;;
28028;SDS011;15345;59.364;18.016;2024-02-21T03:11:01;18.25;;;9.43;;
28028;SDS011;15345;59.364;18.016;2024-02-21T03:12:20;16.30;;;8.80;;
28028;SDS011;15345;59.364;18.016;2024-02-21T03:13:46;19.88;;;9.00;;
28028;SDS011;15345;59.364;18.016;2024-02-21T03:15:05;16.17;;;8.60;;
28028;SDS011;15345;59.364;18.016;2024-02-21T03:16:24;13.88;;;8.38;;
28028;SDS011;15345;59.364;18.016;2024-02-21T03:17:43;17.42;;;9.25;;
28028;SDS011;15345;59.364;18.016;2024-02-21T03:19:02;15.35;;;8.55;;
28028;SDS011;15345;59.364;18.016;2024-02-21T03:20:23;12.32;;;7.97;;
28028;SDS011;15345;59.364;18.016;2024-02-21T03:21:42;16.77;;;8.00;;
28028;SDS011;15345;59.364;18.016;2024-02-21T03:23:01;11.65;;;7.45;;
28028;SDS011;15345;59.364;18.016;2024-02-21T03:24:20;13.20;;;7.25;;
28028;SDS011;15345;59.364;18.016;2024-02-21T03:25:39;9.43;;;6.30;;
28028;SDS011;15345;59.364;18.016;2024-02-21T03:26:58;9.68;;;6.30;;
28028;SDS011;15345;59.364;18.016;2024-02-21T03:28:17;10.60;;;6.78;;
28028;SDS011;15345;59.364;18.016;2024-02-21T03:29:36;8.75;;;6.55;;
28028;SDS011;15345;59.364;18.016;2024-02-21T03:30:55;10.70;;;6.35;;
28028;SDS011;15345;59.364;18.016;2024-02-21T03:32:14;9.18;;;5.85;;
28028;SDS011;15345;59.364;18.016;2024-02-21T03:33:33;9.73;;;6.00;;
28028;SDS011;15345;59.364;18.016;2024-02-21T03:34:52;10.00;;;5.80;;
28028;SDS011;15345;59.364;18.016;2024-02-21T03:36:14;9.75;;;5.78;;
28028;SDS011;15345;59.364;18.016;2024-02-21T03:38:53;8.70;;;4.80;;
28028;SDS011;15345;59.364;18.016;2024-02-21T03:40:12;6.13;;;5.10;;
28028;SDS011;15345;59.364;18.016;2024-02-21T03:41:31;6.93;;;4.75;;
28028;SDS011;15345;59.364;18.016;2024-02-21T03:42:51;6.55;;;5.15;;
28028;SDS011;15345;59.364;18.016;2024-02-21T03:44:09;9.32;;;5.38;;
28028;SDS011;15345;59.364;18.016;2024-02-21T03:45:28;6.50;;;5.18;;
28028;SDS011;15345;59.364;18.016;2024-02-21T03:46:49;6.47;;;4.70;;
28028;SDS011;15345;59.364;18.016;2024-02-21T03:48:09;6.22;;;4.97;;
28028;SDS011;15345;59.364;18.016;2024-02-21T03:49:28;6.28;;;4.50;;
28028;SDS011;15345;59.364;18.016;2024-02-21T03:50:47;5.18;;;4.47;;
28028;SDS011;15345;59.364;18.016;2024-02-21T03:52:06;6.43;;;4.68;;
28028;SDS011;15345;59.364;18.016;2024-02-21T03:53:26;6.60;;;4.72;;
28028;SDS011;15345;59.364;18.016;2024-02-21T03:54:46;7.95;;;4.50;;
28028;SDS011;15345;59.364;18.016;2024-02-21T03:56:06;4.93;;;4.35;;
28028;SDS011;15345;59.364;18.016;2024-02-21T03:57:25;6.70;;;4.60;;
28028;SDS011;15345;59.364;18.016;2024-02-21T03:58:46;5.03;;;3.72;;
28028;SDS011;15345;59.364;18.016;2024-02-21T04:00:05;5.30;;;4.32;;
28028;SDS011;15345;59.364;18.016;2024-02-21T04:01:26;6.13;;;4.32;;
28028;SDS011;15345;59.364;18.016;2024-02-21T04:02:45;5.60;;;4.35;;
28028;SDS011;15345;59.364;18.016;2024-02-21T04:04:04;5.80;;;4.35;;
28028;SDS011;15345;59.364;18.016;2024-02-21T04:05:23;6.00;;;5.07;;
28028;SDS011;15345;59.364;18.016;2024-02-21T04:06:46;6.70;;;4.18;;
28028;SDS011;15345;59.364;18.016;2024-02-21T04:08:05;7.78;;;4.60;;
28028;SDS011;15345;59.364;18.016;2024-02-21T04:09:24;6.95;;;3.42;;
28028;SDS011;15345;59.364;18.016;2024-02-21T04:10:43;4.75;;;3.92;;
28028;SDS011;15345;59.364;18.016;2024-02-21T04:12:03;5.32;;;3.80;;
28028;SDS011;15345;59.364;18.016;2024-02-21T04:13:23;4.15;;;3.67;;
28028;SDS011;15345;59.364;18.016;2024-02-21T04:14:42;5.80;;;3.50;;
28028;SDS011;15345;59.364;18.016;2024-02-21T04:16:00;4.80;;;3.42;;
28028;SDS011;15345;59.364;18.016;2024-02-21T04:17:20;5.28;;;3.90;;
28028;SDS011;15345;59.364;18.016;2024-02-21T04:18:39;5.32;;;3.45;;
28028;SDS011;15345;59.364;18.016;2024-02-21T04:20:02;4.57;;;4.07;;
28028;SDS011;15345;59.364;18.016;2024-02-21T04:21:23;5.45;;;3.45;;
28028;SDS011;15345;59.364;18.016;2024-02-21T04:22:43;7.88;;;4.18;;
28028;SDS011;15345;59.364;18.016;2024-02-21T04:24:04;3.92;;;3.38;;
28028;SDS011;15345;59.364;18.016;2024-02-21T04:25:24;4.47;;;3.30;;
28028;SDS011;15345;59.364;18.016;2024-02-21T04:26:44;8.85;;;3.70;;
28028;SDS011;15345;59.364;18.016;2024-02-21T04:28:04;7.32;;;3.50;;
28028;SDS011;15345;59.364;18.016;2024-02-21T04:29:23;5.57;;;3.72;;
28028;SDS011;15345;59.364;18.016;2024-02-21T04:30:42;8.38;;;3.60;;
28028;SDS011;15345;59.364;18.016;2024-02-21T04:32:01;5.40;;;3.53;;
28028;SDS011;15345;59.364;18.016;2024-02-21T04:33:21;5.50;;;3.70;;
28028;SDS011;15345;59.364;18.016;2024-02-21T04:34:40;5.40;;;3.58;;
28028;SDS011;15345;59.364;18.016;2024-02-21T04:36:00;5.10;;;3.17;;
28028;SDS011;15345;59.364;18.016;2024-02-21T04:37:20;5.65;;;3.40;;
28028;SDS011;15345;59.364;18.016;2024-02-21T04:38:40;7.00;;;3.28;;
28028;SDS011;15345;59.364;18.016;2024-02-21T04:39:59;6.32;;;3.45;;
28028;SDS011;15345;59.364;18.016;2024-02-21T04:41:20;3.80;;;3.38;;
28028;SDS011;15345;59.364;18.016;2024-02-21T04:42:39;5.13;;;3.15;;
28028;SDS011;15345;59.364;18.016;2024-02-21T04:43:58;5.32;;;3.35;;
28028;SDS011;15345;59.364;18.016;2024-02-21T04:45:17;10.32;;;3.60;;
28028;SDS011;15345;59.364;18.016;2024-02-21T04:46:36;8.45;;;3.35;;
28028;SDS011;15345;59.364;18.016;2024-02-21T04:47:55;6.82;;;3.85;;
28028;SDS011;15345;59.364;18.016;2024-02-21T04:49:14;3.47;;;3.10;;
28028;SDS011;15345;59.364;18.016;2024-02-21T04:50:32;6.65;;;3.58;;
28028;SDS011;15345;59.364;18.016;2024-02-21T04:51:51;7.32;;;3.30;;
28028;SDS011;15345;59.364;18.016;2024-02-21T04:53:10;8.05;;;3.75;;
28028;SDS011;15345;59.364;18.016;2024-02-21T04:54:29;8.20;;;3.65;;
28028;SDS011;15345;59.364;18.016;2024-02-21T04:55:48;6.97;;;3.75;;
28028;SDS011;15345;59.364;18.016;2024-02-21T04:57:07;13.80;;;4.40;;
28028;SDS011;15345;59.364;18.016;2024-02-21T04:58:28;5.85;;;3.53;;
28028;SDS011;15345;59.364;18.016;2024-02-21T04:59:47;4.63;;;3.47;;
28028;SDS011;15345;59.364;18.016;2024-02-21T05:01:07;5.80;;;3.40;;
28028;SDS011;15345;59.364;18.016;2024-02-21T05:02:27;7.70;;;3.90;;
28028;SDS011;15345;59.364;18.016;2024-02-21T05:03:46;8.63;;;3.88;;
28028;SDS011;15345;59.364;18.016;2024-02-21T05:05:05;9.35;;;4.30;;
28028;SDS011;15345;59.364;18.016;2024-02-21T05:06:24;9.02;;;5.00;;
28028;SDS011;15345;59.364;18.016;2024-02-21T05:07:43;7.80;;;3.78;;
28028;SDS011;15345;59.364;18.016;2024-02-21T05:09:02;10.77;;;4.43;;
28028;SDS011;15345;59.364;18.016;2024-02-21T05:10:21;11.23;;;3.95;;
28028;SDS011;15345;59.364;18.016;2024-02-21T05:11:40;5.32;;;3.40;;
28028;SDS011;15345;59.364;18.016;2024-02-21T05:12:59;8.27;;;3.88;;
28028;SDS011;15345;59.364;18.016;2024-02-21T05:14:18;7.85;;;3.85;;
28028;SDS011;15345;59.364;18.016;2024-02-21T05:15:37;9.25;;;4.25;;
28028;SDS011;15345;59.364;18.016;2024-02-21T05:16:56;9.38;;;4.55;;
28028;SDS011;15345;59.364;18.016;2024-02-21T05:18:15;10.35;;;4.30;;
28028;SDS011;15345;59.364;18.016;2024-02-21T05:19:34;8.93;;;4.57;;
28028;SDS011;15345;59.364;18.016;2024-02-21T05:20:53;5.60;;;3.97;;
28028;SDS011;15345;59.364;18.016;2024-02-21T05:22:12;7.07;;;3.72;;
28028;SDS011;15345;59.364;18.016;2024-02-21T05:23:31;11.18;;;4.13;;
28028;SDS011;15345;59.364;18.016;2024-02-21T05:24:50;9.18;;;4.45;;
28028;SDS011;15345;59.364;18.016;2024-02-21T05:26:10;6.82;;;4.00;;
28028;SDS011;15345;59.364;18.016;2024-02-21T05:27:28;10.70;;;4.20;;
28028;SDS011;15345;59.364;18.016;2024-02-21T05:28:47;15.25;;;4.05;;
28028;SDS011;15345;59.364;18.016;2024-02-21T05:30:06;8.90;;;3.70;;
28028;SDS011;15345;59.364;18.016;2024-02-21T05:31:25;6.15;;;3.65;;
28028;SDS011;15345;59.364;18.016;2024-02-21T05:32:45;10.43;;;4.15;;
28028;SDS011;15345;59.364;18.016;2024-02-21T05:34:04;6.35;;;3.47;;
28028;SDS011;15345;59.364;18.016;2024-02-21T05:35:26;5.07;;;3.45;;
28028;SDS011;15345;59.364;18.016;2024-02-21T05:36:46;8.50;;;3.40;;
28028;SDS011;15345;59.364;18.016;2024-02-21T05:38:05;6.65;;;3.88;;
28028;SDS011;15345;59.364;18.016;2024-02-21T05:39:29;7.82;;;4.05;;
28028;SDS011;15345;59.364;18.016;2024-02-21T05:40:48;11.13;;;4.05;;
28028;SDS011;15345;59.364;18.016;2024-02-21T05:42:07;9.82;;;4.32;;
28028;SDS011;15345;59.364;18.016;2024-02-21T05:43:26;5.63;;;3.72;;
28028;SDS011;15345;59.364;18.016;2024-02-21T05:44:45;4.30;;;3.65;;
28028;SDS011;15345;59.364;18.016;2024-02-21T05:46:04;6.43;;;3.75;;
28028;SDS011;15345;59.364;18.016;2024-02-21T05:47:23;6.80;;;4.32;;
28028;SDS011;15345;59.364;18.016;2024-02-21T05:48:42;6.20;;;3.70;;
28028;SDS011;15345;59.364;18.016;2024-02-21T05:50:01;7.65;;;3.75;;
28028;SDS011;15345;59.364;18.016;2024-02-21T05:51:20;7.57;;;4.55;;
28028;SDS011;15345;59.364;18.016;2024-02-21T05:52:39;7.57;;;3.95;;
28028;SDS011;15345;59.364;18.016;2024-02-21T05:53:58;9.25;;;3.85;;
28028;SDS011;15345;59.364;18.016;2024-02-21T05:55:17;7.53;;;3.92;;
28028;SDS011;15345;59.364;18.016;2024-02-21T05:56:36;7.35;;;3.90;;
28028;SDS011;15345;59.364;18.016;2024-02-21T05:57:56;7.95;;;4.82;;
28028;SDS011;15345;59.364;18.016;2024-02-21T05:59:16;7.40;;;5.00;;
28028;SDS011;15345;59.364;18.016;2024-02-21T06:00:35;10.68;;;4.93;;
28028;SDS011;15345;59.364;18.016;2024-02-21T06:01:55;11.05;;;5.03;;
28028;SDS011;15345;59.364;18.016;2024-02-21T06:03:17;11.23;;;4.55;;
28028;SDS011;15345;59.364;18.016;2024-02-21T06:04:37;6.93;;;4.70;;
28028;SDS011;15345;59.364;18.016;2024-02-21T06:05:58;9.13;;;4.45;;
28028;SDS011;15345;59.364;18.016;2024-02-21T06:07:18;9.10;;;4.32;;
28028;SDS011;15345;59.364;18.016;2024-02-21T06:08:37;10.05;;;4.80;;
28028;SDS011;15345;59.364;18.016;2024-02-21T06:09:58;9.20;;;5.15;;
28028;SDS011;15345;59.364;18.016;2024-02-21T06:11:17;13.15;;;5.97;;
28028;SDS011;15345;59.364;18.016;2024-02-21T06:12:39;10.32;;;4.55;;
28028;SDS011;15345;59.364;18.016;2024-02-21T06:13:58;9.88;;;4.57;;
28028;SDS011;15345;59.364;18.016;2024-02-21T06:15:19;10.05;;;5.43;;
28028;SDS011;15345;59.364;18.016;2024-02-21T06:16:38;37.25;;;18.48;;
28028;SDS011;15345;59.364;18.016;2024-02-21T06:17:57;14.13;;;7.18;;
28028;SDS011;15345;59.364;18.016;2024-02-21T06:19:16;11.90;;;6.43;;
28028;SDS011;15345;59.364;18.016;2024-02-21T06:20:34;12.63;;;6.60;;
28028;SDS011;15345;59.364;18.016;2024-02-21T06:21:55;17.33;;;6.50;;
28028;SDS011;15345;59.364;18.016;2024-02-21T06:23:15;16.30;;;8.32;;
28028;SDS011;15345;59.364;18.016;2024-02-21T06:24:35;14.75;;;6.25;;
28028;SDS011;15345;59.364;18.016;2024-02-21T06:25:55;10.98;;;6.22;;
28028;SDS011;15345;59.364;18.016;2024-02-21T06:27:14;10.43;;;6.20;;
28028;SDS011;15345;59.364;18.016;2024-02-21T06:28:34;11.57;;;6.25;;
28028;SDS011;15345;59.364;18.016;2024-02-21T06:29:55;10.77;;;6.22;;
28028;SDS011;15345;59.364;18.016;2024-02-21T06:31:14;10.32;;;6.03;;
28028;SDS011;15345;59.364;18.016;2024-02-21T06:32:35;12.82;;;6.20;;
28028;SDS011;15345;59.364;18.016;2024-02-21T06:33:55;14.55;;;6.90;;
28028;SDS011;15345;59.364;18.016;2024-02-21T06:35:14;13.07;;;6.68;;
28028;SDS011;15345;59.364;18.016;2024-02-21T06:36:33;14.63;;;7.22;;
28028;SDS011;15345;59.364;18.016;2024-02-21T06:37:52;12.20;;;6.07;;
28028;SDS011;15345;59.364;18.016;2024-02-21T06:39:11;16.40;;;7.40;;
28028;SDS011;15345;59.364;18.016;2024-02-21T06:40:30;15.27;;;6.97;;
28028;SDS011;15345;59.364;18.016;2024-02-21T06:41:56;11.30;;;6.82;;
28028;SDS011;15345;59.364;18.016;2024-02-21T06:43:19;12.60;;;6.55;;
28028;SDS011;15345;59.364;18.016;2024-02-21T06:44:38;14.07;;;7.38;;
28028;SDS011;15345;59.364;18.016;2024-02-21T06:45:58;13.98;;;7.35;;
28028;SDS011;15345;59.364;18.016;2024-02-21T06:47:17;16.90;;;7.43;;
28028;SDS011;15345;59.364;18.016;2024-02-21T06:48:36;16.33;;;7.22;;
28028;SDS011;15345;59.364;18.016;2024-02-21T06:49:56;17.20;;;6.65;;
28028;SDS011;15345;59.364;18.016;2024-02-21T06:51:14;13.75;;;7.32;;
28028;SDS011;15345;59.364;18.016;2024-02-21T06:52:33;14.85;;;6.95;;
28028;SDS011;15345;59.364;18.016;2024-02-21T06:53:52;14.20;;;8.00;;
28028;SDS011;15345;59.364;18.016;2024-02-21T06:55:11;12.13;;;6.53;;
28028;SDS011;15345;59.364;18.016;2024-02-21T06:56:30;16.05;;;6.82;;
28028;SDS011;15345;59.364;18.016;2024-02-21T06:57:49;16.30;;;6.97;;
28028;SDS011;15345;59.364;18.016;2024-02-21T06:59:08;17.20;;;8.35;;
28028;SDS011;15345;59.364;18.016;2024-02-21T07:00:28;20.23;;;9.70;;
28028;SDS011;15345;59.364;18.016;2024-02-21T07:01:54;18.45;;;9.52;;
28028;SDS011;15345;59.364;18.016;2024-02-21T07:03:15;17.75;;;8.85;;
28028;SDS011;15345;59.364;18.016;2024-02-21T07:04:34;15.50;;;8.45;;
28028;SDS011;15345;59.364;18.016;2024-02-21T07:05:54;20.38;;;7.90;;
28028;SDS011;15345;59.364;18.016;2024-02-21T07:07:13;18.08;;;7.82;;
28028;SDS011;15345;59.364;18.016;2024-02-21T07:08:32;13.85;;;8.65;;
28028;SDS011;15345;59.364;18.016;2024-02-21T07:09:51;12.82;;;7.47;;
28028;SDS011;15345;59.364;18.016;2024-02-21T07:11:11;13.35;;;7.03;;
28028;SDS011;15345;59.364;18.016;2024-02-21T07:12:30;15.55;;;6.97;;
28028;SDS011;15345;59.364;18.016;2024-02-21T07:13:49;15.70;;;7.22;;
28028;SDS011;15345;59.364;18.016;2024-02-21T07:15:08;15.90;;;7.32;;
28028;SDS011;15345;59.364;18.016;2024-02-21T07:16:27;18.20;;;7.57;;
28028;SDS011;15345;59.364;18.016;2024-02-21T07:17:47;14.52;;;7.80;;
28028;SDS011;15345;59.364;18.016;2024-02-21T07:19:06;19.45;;;7.72;;
28028;SDS011;15345;59.364;18.016;2024-02-21T07:20:25;15.18;;;7.35;;
28028;SDS011;15345;59.364;18.016;2024-02-21T07:21:44;17.20;;;7.30;;
28028;SDS011;15345;59.364;18.016;2024-02-21T07:23:03;17.30;;;7.55;;
28028;SDS011;15345;59.364;18.016;2024-02-21T07:24:22;14.35;;;7.18;;
28028;SDS011;15345;59.364;18.016;2024-02-21T07:25:41;17.33;;;7.50;;
28028;SDS011;15345;59.364;18.016;2024-02-21T07:27:00;15.30;;;7.35;;
28028;SDS011;15345;59.364;18.016;2024-02-21T07:28:23;17.27;;;8.32;;
28028;SDS011;15345;59.364;18.016;2024-02-21T07:29:42;15.63;;;7.00;;
28028;SDS011;15345;59.364;18.016;2024-02-21T07:31:01;14.48;;;7.82;;
28028;SDS011;15345;59.364;18.016;2024-02-21T07:32:21;15.32;;;7.95;;
28028;SDS011;15345;59.364;18.016;2024-02-21T07:33:40;17.17;;;8.30;;
28028;SDS011;15345;59.364;18.016;2024-02-21T07:35:00;18.88;;;8.40;;
28028;SDS011;15345;59.364;18.016;2024-02-21T07:36:28;21.35;;;8.25;;
28028;SDS011;15345;59.364;18.016;2024-02-21T07:37:48;22.80;;;8.07;;
28028;SDS011;15345;59.364;18.016;2024-02-21T07:39:06;13.60;;;8.15;;
28028;SDS011;15345;59.364;18.016;2024-02-21T07:40:25;19.70;;;8.70;;
28028;SDS011;15345;59.364;18.016;2024-02-21T07:41:44;18.65;;;9.35;;
28028;SDS011;15345;59.364;18.016;2024-02-21T07:43:05;18.65;;;9.27;;
28028;SDS011;15345;59.364;18.016;2024-02-21T07:44:24;22.75;;;9.07;;
28028;SDS011;15345;59.364;18.016;2024-02-21T07:47:16;17.67;;;8.35;;
28028;SDS011;15345;59.364;18.016;2024-02-21T07:48:37;19.65;;;8.65;;
28028;SDS011;15345;59.364;18.016;2024-02-21T07:49:56;19.83;;;8.02;;
28028;SDS011;15345;59.364;18.016;2024-02-21T07:51:15;17.58;;;7.60;;
28028;SDS011;15345;59.364;18.016;2024-02-21T07:52:40;14.98;;;7.18;;